createdAt,value
2019-01-13T00:00:23.935Z,100785.70
2019-01-13T00:05:16.933Z,100785.15
2019-01-13T00:10:09.948Z,100781.25
2019-01-13T00:15:04.211Z,100777.84
2019-01-13T00:19:57.153Z,100775.14
2019-01-13T00:24:50.231Z,100783.36
2019-01-13T00:29:43.147Z,100769.59
2019-01-13T00:34:35.982Z,100767.59
2019-01-13T00:39:28.879Z,100767.27
2019-01-13T00:44:21.805Z,100777.53
2019-01-13T00:49:14.793Z,100779.92
2019-01-13T00:54:07.758Z,100776.77
2019-01-13T00:59:00.648Z,100773.89
2019-01-13T01:03:54.147Z,100782.18
2019-01-13T01:08:47.165Z,100774.63
2019-01-13T01:13:40.041Z,100761.52
2019-01-13T01:18:33.040Z,100748.61
2019-01-13T01:23:26.010Z,100746.15
2019-01-13T01:28:18.952Z,100742.58
2019-01-13T01:33:11.811Z,100739.91
2019-01-13T01:38:04.698Z,100733.20
2019-01-13T01:42:57.632Z,100747.20
2019-01-13T01:47:50.509Z,100754.47
2019-01-13T01:52:43.423Z,100742.98
2019-01-13T01:57:36.291Z,100734.55
2019-01-13T02:02:29.207Z,100728.47
2019-01-13T02:07:22.088Z,100728.87
2019-01-13T02:12:15.101Z,100724.38
2019-01-13T02:17:07.976Z,100715.10
2019-01-13T02:22:01.332Z,100717.05
2019-01-13T02:26:54.208Z,100697.92
2019-01-13T02:31:47.340Z,100680.84
2019-01-13T02:36:40.252Z,100672.44
2019-01-13T02:41:33.133Z,100676.87
2019-01-13T02:46:26.018Z,100688.33
2019-01-13T02:51:18.942Z,100671.85
2019-01-13T02:56:11.838Z,100666.44
2019-01-13T03:01:04.905Z,100658.51
2019-01-13T03:05:57.796Z,100666.67
2019-01-13T03:10:50.643Z,100686.45
2019-01-13T03:15:43.552Z,100669.45
2019-01-13T03:20:36.500Z,100669.43
2019-01-13T03:25:29.681Z,100669.88
2019-01-13T03:30:24.053Z,100679.77
2019-01-13T03:35:17.223Z,100674.63
2019-01-13T03:40:14.692Z,100671.73
2019-01-13T03:45:09.033Z,100655.48
2019-01-13T03:50:02.092Z,100658.59
2019-01-13T03:54:55.068Z,100638.40
2019-01-13T03:59:48.891Z,100612.50
2019-01-13T04:04:41.735Z,100587.59
2019-01-13T04:09:34.606Z,100582.98
2019-01-13T04:14:29.229Z,100589.31
2019-01-13T04:19:22.253Z,100582.77
2019-01-13T04:24:16.352Z,100581.98
2019-01-13T04:29:09.240Z,100560.00
2019-01-13T04:34:02.154Z,100545.14
2019-01-13T04:38:55.052Z,100538.34
2019-01-13T04:43:47.931Z,100517.70
2019-01-13T04:48:40.935Z,100521.13
2019-01-13T04:53:33.805Z,100525.17
2019-01-13T04:58:26.672Z,100524.59
2019-01-13T05:03:19.538Z,100506.06
2019-01-13T05:08:12.535Z,100502.92
2019-01-13T05:13:05.437Z,100485.78
2019-01-13T05:17:58.293Z,100477.66
2019-01-13T05:22:51.199Z,100461.00
2019-01-13T05:27:44.104Z,100456.77
2019-01-13T05:32:36.982Z,100438.89
2019-01-13T05:37:29.862Z,100429.61
2019-01-13T05:42:22.702Z,100422.20
2019-01-13T05:47:15.551Z,100401.73
2019-01-13T05:52:08.412Z,100395.36
2019-01-13T05:57:01.320Z,100397.52
2019-01-13T06:01:54.328Z,100399.53
2019-01-13T06:06:49.033Z,100381.77
2019-01-13T06:11:41.924Z,100381.41
2019-01-13T06:16:34.788Z,100380.65
2019-01-13T06:21:27.732Z,100381.31
2019-01-13T06:26:20.592Z,100383.33
2019-01-13T06:31:13.529Z,100384.23
2019-01-13T06:36:06.399Z,100384.20
2019-01-13T06:40:59.325Z,100378.51
2019-01-13T06:45:52.179Z,100386.02
2019-01-13T06:50:45.064Z,100379.39
2019-01-13T06:55:37.928Z,100377.80
2019-01-13T07:00:31.973Z,100365.08
2019-01-13T07:05:25.129Z,100373.19
2019-01-13T07:10:18.462Z,100366.23
2019-01-13T07:15:14.270Z,100359.39
2019-01-13T07:20:10.532Z,100364.97
2019-01-13T07:25:06.198Z,100352.64
2019-01-13T07:29:59.071Z,100356.69
2019-01-13T07:34:51.962Z,100350.27
2019-01-13T07:39:44.900Z,100341.34
2019-01-13T07:44:37.793Z,100334.27
2019-01-13T07:49:30.691Z,100329.05
2019-01-13T07:54:23.678Z,100328.85
2019-01-13T07:59:16.553Z,100312.39
2019-01-13T08:04:09.507Z,100305.80
2019-01-13T08:09:04.173Z,100312.05
2019-01-13T08:13:57.090Z,100307.55
2019-01-13T08:18:50.267Z,100303.36
2019-01-13T08:23:43.201Z,100296.38
2019-01-13T08:28:36.092Z,100299.70
2019-01-13T08:33:28.959Z,100302.52
2019-01-13T08:38:21.920Z,100295.00
2019-01-13T08:43:15.066Z,100280.78
2019-01-13T08:48:08.047Z,100266.10
2019-01-13T08:53:01.012Z,100267.81
2019-01-13T08:57:53.945Z,100279.66
2019-01-13T09:02:46.812Z,100269.61
2019-01-13T09:07:39.774Z,100270.21
2019-01-13T09:12:32.789Z,100264.39
2019-01-13T09:17:25.803Z,100260.95
2019-01-13T09:22:18.656Z,100255.77
2019-01-13T09:27:11.568Z,100244.97
2019-01-13T09:32:04.560Z,100232.05
2019-01-13T09:36:57.529Z,100228.25
2019-01-13T09:41:50.452Z,100225.53
2019-01-13T09:46:43.337Z,100226.86
2019-01-13T09:51:36.257Z,100238.62
2019-01-13T09:56:29.157Z,100221.23
2019-01-13T10:01:22.047Z,100201.09
2019-01-13T10:06:14.940Z,100217.19
2019-01-13T10:11:07.804Z,100218.45
2019-01-13T10:16:00.702Z,100212.32
2019-01-13T10:20:53.644Z,100204.28
2019-01-13T10:25:46.540Z,100180.43
2019-01-13T10:30:39.375Z,100160.45
2019-01-13T10:35:32.283Z,100181.08
2019-01-13T10:40:28.379Z,100176.90
2019-01-13T10:45:21.449Z,100186.23
2019-01-13T10:50:23.432Z,100159.18
2019-01-13T10:55:16.895Z,100146.44
2019-01-13T11:00:18.243Z,100135.13
2019-01-13T11:05:11.263Z,100109.66
2019-01-13T11:10:06.656Z,100105.35
2019-01-13T11:14:59.535Z,100091.68
2019-01-13T11:19:52.395Z,100092.73
2019-01-13T11:24:45.436Z,100075.77
2019-01-13T11:29:38.373Z,100075.15
2019-01-13T11:34:31.235Z,100066.92
2019-01-13T11:39:24.098Z,100071.09
2019-01-13T11:44:16.998Z,100054.80
2019-01-13T11:49:09.925Z,100037.36
2019-01-13T11:54:02.774Z,100026.92
2019-01-13T11:58:55.758Z,100025.20
2019-01-13T12:03:48.638Z,100024.98
2019-01-13T12:08:41.601Z,100022.66
2019-01-13T12:13:34.522Z,100012.39
2019-01-13T12:18:27.393Z,100006.57
2019-01-13T12:23:20.446Z,99992.16
2019-01-13T12:28:13.423Z,99988.55
2019-01-13T12:33:06.653Z,99975.22
2019-01-13T12:37:59.643Z,99974.27
2019-01-13T12:42:52.582Z,99962.95
2019-01-13T12:47:45.496Z,99955.36
2019-01-13T12:52:38.419Z,99946.30
2019-01-13T12:57:31.287Z,99944.73
2019-01-13T13:02:24.544Z,99936.41
2019-01-13T13:07:18.201Z,99934.66
2019-01-13T13:12:12.029Z,99926.27
2019-01-13T13:17:05.511Z,99902.49
2019-01-13T13:21:59.062Z,99905.51
2019-01-13T13:26:52.500Z,99914.02
2019-01-13T13:31:45.851Z,99905.23
2019-01-13T13:36:39.501Z,99882.52
2019-01-13T13:41:33.023Z,99883.50
2019-01-13T13:46:28.200Z,99890.45
2019-01-13T13:51:21.993Z,99895.21
2019-01-13T13:56:16.326Z,99879.31
2019-01-13T14:01:09.489Z,99882.25
2019-01-13T14:06:02.437Z,99874.16
2019-01-13T14:10:55.407Z,99865.32
2019-01-13T14:15:48.547Z,99848.17
2019-01-13T14:20:41.471Z,99852.66
2019-01-13T14:25:34.513Z,99852.37
2019-01-13T14:30:27.710Z,99846.17
2019-01-13T14:35:20.869Z,99838.45
2019-01-13T14:40:17.202Z,99844.61
2019-01-13T14:45:14.410Z,99854.63
2019-01-13T14:50:11.042Z,99839.45
2019-01-13T14:55:04.506Z,99831.44
2019-01-13T14:59:57.495Z,99830.98
2019-01-13T15:04:50.385Z,99829.07
2019-01-13T15:09:46.003Z,99820.88
2019-01-13T15:14:39.073Z,99819.65
2019-01-13T15:19:32.287Z,99809.94
2019-01-13T15:24:25.259Z,99820.25
2019-01-13T15:29:18.160Z,99810.21
2019-01-13T15:34:11.046Z,99805.69
2019-01-13T15:39:07.621Z,99806.19
2019-01-13T15:44:00.457Z,99811.95
2019-01-13T15:48:53.413Z,99812.56
2019-01-13T15:53:46.329Z,99841.87
2019-01-13T15:58:39.223Z,99844.58
2019-01-13T16:03:32.104Z,99830.34
2019-01-13T16:08:25.032Z,99841.41
2019-01-13T16:13:19.243Z,99841.48
2019-01-13T16:18:12.115Z,99840.33
2019-01-13T16:23:05.837Z,99828.31
2019-01-13T16:27:58.877Z,99822.52
2019-01-13T16:32:51.787Z,99821.98
2019-01-13T16:37:44.688Z,99803.77
2019-01-13T16:42:37.610Z,99812.01
2019-01-13T16:47:30.521Z,99813.98
2019-01-13T16:52:23.501Z,99799.11
2019-01-13T16:57:16.400Z,99802.25
2019-01-13T17:02:09.498Z,99800.42
2019-01-13T17:07:02.500Z,99781.14
2019-01-13T17:11:55.374Z,99777.34
2019-01-13T17:16:48.265Z,99767.34
2019-01-13T17:21:41.206Z,99767.89
2019-01-13T17:26:34.080Z,99767.14
2019-01-13T17:31:27.192Z,99754.20
2019-01-13T17:36:20.101Z,99752.84
2019-01-13T17:41:14.155Z,99742.50
2019-01-13T17:46:07.181Z,99733.22
2019-01-13T17:51:00.560Z,99737.37
2019-01-13T17:55:53.639Z,99728.71
2019-01-13T18:00:58.669Z,99725.05
2019-01-13T18:05:51.763Z,99726.02
2019-01-13T18:10:44.628Z,99735.18
2019-01-13T18:15:37.532Z,99734.13
2019-01-13T18:20:30.477Z,99740.47
2019-01-13T18:25:23.438Z,99741.45
2019-01-13T18:30:20.292Z,99729.75
2019-01-13T18:35:15.448Z,99730.48
2019-01-13T18:40:12.020Z,99720.10
2019-01-13T18:45:09.561Z,99735.75
2019-01-13T18:50:03.691Z,99727.63
2019-01-13T18:54:56.624Z,99719.61
2019-01-13T18:59:49.538Z,99722.50
2019-01-13T19:04:44.281Z,99721.72
2019-01-13T19:09:37.252Z,99705.90
2019-01-13T19:14:47.942Z,99732.61
2019-01-13T19:20:06.977Z,99743.41
2019-01-13T19:25:14.913Z,99743.54
2019-01-13T19:30:11.216Z,99756.63
2019-01-13T19:35:06.466Z,99767.33
2019-01-13T19:39:59.413Z,99770.20
2019-01-13T19:44:52.251Z,99812.30
2019-01-13T19:49:45.145Z,99827.71
2019-01-13T19:54:39.346Z,99820.66
2019-01-13T19:59:36.630Z,99819.69
2019-01-13T20:04:32.441Z,99828.34
2019-01-13T20:09:25.388Z,99833.80
2019-01-13T20:14:18.310Z,99830.47
2019-01-13T20:19:11.603Z,99830.16
2019-01-13T20:24:04.797Z,99844.39
2019-01-13T20:28:57.735Z,99829.53
2019-01-13T20:33:50.735Z,99833.39
2019-01-13T20:38:43.673Z,99847.78
2019-01-13T20:43:37.926Z,99865.28
2019-01-13T20:48:31.092Z,99863.49
2019-01-13T20:53:24.116Z,99858.63
2019-01-13T20:58:17.032Z,99853.48
2019-01-13T21:03:11.741Z,99860.00
2019-01-13T21:08:04.732Z,99857.05
2019-01-13T21:12:57.726Z,99859.83
2019-01-13T21:17:57.216Z,99866.58
2019-01-13T21:22:45.569Z,99876.70
2019-01-13T21:27:38.981Z,99883.38
2019-01-13T21:32:31.982Z,99885.27
2019-01-13T21:37:25.701Z,99886.77
2019-01-13T21:42:18.640Z,99891.02
2019-01-13T21:47:11.676Z,99897.84
2019-01-13T21:52:04.798Z,99910.39
2019-01-13T21:56:57.694Z,99915.86
2019-01-13T22:01:50.579Z,99916.96
2019-01-13T22:06:43.720Z,99925.23
2019-01-13T22:11:36.706Z,99935.47
2019-01-13T22:16:29.604Z,99931.97
2019-01-13T22:21:22.484Z,99933.29
2019-01-13T22:26:15.600Z,99933.83
2019-01-13T22:31:09.712Z,99933.51
2019-01-13T22:36:02.638Z,99942.84
2019-01-13T22:40:55.519Z,99947.28
2019-01-13T22:45:48.482Z,99958.61
2019-01-13T22:50:41.423Z,99960.25
2019-01-13T22:55:34.292Z,99957.63
2019-01-13T23:01:01.805Z,99961.16
2019-01-13T23:05:55.705Z,99967.67
2019-01-13T23:10:52.684Z,99966.05
2019-01-13T23:15:45.896Z,99976.80
2019-01-13T23:20:38.814Z,99980.82
2019-01-13T23:25:31.762Z,99977.04
2019-01-13T23:30:24.607Z,99977.34
2019-01-13T23:35:17.461Z,99980.10
2019-01-13T23:40:10.503Z,99976.22
2019-01-13T23:45:04.421Z,99975.03
2019-01-13T23:49:58.387Z,99973.97
2019-01-13T23:54:51.238Z,99984.16
2019-01-13T23:59:44.140Z,99994.44
